Howard, Indiana
Current Conditions -  °F | °C
As of 9:55 PM on Friday 19 Dec 2014 (Local Time) from K4I7 Reporting Station
Overcast Overcast  
Wind Chill: 30°   Ceiling: 2400
Heat Index: 30°   Visibility: 7mi
Dew Point: 23°   Wind: 3mph
Humidity: 75%   Direction: 60°ENE
Pressure: 30.27"   Gusts: NA
Location:  39.912°N, 87.1732°W
Report Text: K4I7 200255Z AUTO 06003KT 7SM OVC024 M01/M05 A3027 RMK AO2
Loading
Personal Weather Stations






























Interactive Weather Map New forecast layout! Learn more

10-Day Weather Forecast

Advertisements
Track Severe Weather on mobile